Holtville, California
Current Conditions -  °F | °C
As of 6:53 PM on Wednesday 22 Oct 2014 (Local Time) from KIPL Reporting Station
Clear Clear  
Wind Chill: 82°   Ceiling: Unl
Heat Index: 82°   Visibility: 10mi
Dew Point: 51°   Wind: 3mph
Humidity: 34%   Direction: 320°NW
Pressure: 29.85"   Gusts: NA
Location:  32.81°N, 115.38°W
Report Text: KIPL 230153Z AUTO 32003KT 10SM CLR 28/11 A2985 RMK AO2 SLP106 T02780106
Loading
Personal Weather Stations






























Interactive Weather Map
Tropical Storm Tracking
New forecast layout! Learn more

10-Day Weather Forecast

Advertisements
Track Severe Weather on mobile